createdAt,value
2018-04-30T00:00:02.456Z,1
2018-04-30T00:05:02.708Z,1
2018-04-30T00:10:03.344Z,1
2018-04-30T00:15:03.055Z,1
2018-04-30T00:20:02.651Z,1
2018-04-30T00:25:03.218Z,1
2018-04-30T00:30:02.754Z,1
2018-04-30T00:35:03.275Z,1
2018-04-30T00:40:02.850Z,1
2018-04-30T00:45:03.652Z,1
2018-04-30T00:50:03.207Z,1
2018-04-30T00:55:02.753Z,1
2018-04-30T01:00:03.473Z,1
2018-04-30T01:05:03.127Z,1
2018-04-30T01:10:02.716Z,1
2018-04-30T01:15:03.313Z,1
2018-04-30T01:20:02.865Z,1
2018-04-30T01:25:02.503Z,1
2018-04-30T01:30:03.037Z,1
2018-04-30T01:35:02.539Z,1
2018-04-30T01:40:03.165Z,1
2018-04-30T01:45:02.784Z,1
2018-04-30T01:50:03.361Z,1
2018-04-30T01:55:02.923Z,1
2018-04-30T02:00:02.504Z,1
2018-04-30T02:05:03.078Z,1
2018-04-30T02:10:02.726Z,1
2018-04-30T02:15:03.260Z,1
2018-04-30T02:20:02.897Z,1
2018-04-30T02:25:03.420Z,1
2018-04-30T02:30:02.930Z,1
2018-04-30T02:35:02.537Z,1
2018-04-30T02:45:02.832Z,1
2018-04-30T02:50:03.610Z,1
2018-04-30T02:55:03.252Z,1
2018-04-30T03:00:02.860Z,1
2018-04-30T03:05:03.471Z,1
2018-04-30T03:10:03.136Z,1
2018-04-30T03:15:02.813Z,1
2018-04-30T03:20:03.329Z,1
2018-04-30T03:25:03.023Z,1
2018-04-30T03:30:02.672Z,1
2018-04-30T03:35:03.244Z,1
2018-04-30T03:40:02.886Z,1
2018-04-30T03:45:02.541Z,1
2018-04-30T03:50:03.147Z,2
2018-04-30T03:55:02.666Z,2
2018-04-30T04:00:03.223Z,4
2018-04-30T04:05:02.792Z,9
2018-04-30T04:10:02.485Z,7
2018-04-30T04:15:03.051Z,13
2018-04-30T04:20:02.781Z,38
2018-04-30T04:25:03.327Z,48
2018-04-30T04:30:02.710Z,56
2018-04-30T04:35:03.464Z,61
2018-04-30T04:40:03.044Z,60
2018-04-30T04:45:02.595Z,67
2018-04-30T04:50:03.147Z,76
2018-04-30T04:55:02.774Z,92
2018-04-30T05:00:03.372Z,107
2018-04-30T05:05:03.017Z,140
2018-04-30T05:10:02.621Z,269
2018-04-30T05:15:03.213Z,277
2018-04-30T05:20:02.760Z,364
2018-04-30T05:25:03.323Z,420
2018-04-30T05:30:02.848Z,404
2018-04-30T05:35:03.449Z,489
2018-04-30T05:40:03.037Z,503
2018-04-30T05:45:02.627Z,603
2018-04-30T05:50:03.240Z,716
2018-04-30T05:55:02.866Z,600
2018-04-30T06:00:03.433Z,689
2018-04-30T06:05:02.981Z,623
2018-04-30T06:10:02.655Z,675
2018-04-30T06:15:03.193Z,675
2018-04-30T06:20:02.768Z,655
2018-04-30T06:25:03.346Z,928
2018-04-30T06:30:02.871Z,734
2018-04-30T06:35:03.383Z,643
2018-04-30T06:40:03.015Z,697
2018-04-30T06:45:02.590Z,768
2018-04-30T06:50:03.266Z,1000
2018-04-30T06:55:02.827Z,2000
2018-04-30T07:00:03.400Z,2000
2018-04-30T07:05:03.164Z,1000
2018-04-30T07:10:02.826Z,1000
2018-04-30T07:15:02.467Z,1000
2018-04-30T07:20:03.247Z,1000
2018-04-30T07:25:03.205Z,2000
2018-04-30T07:30:02.799Z,2000
2018-04-30T07:35:02.519Z,2000
2018-04-30T07:40:03.205Z,2000
2018-04-30T07:45:02.872Z,1000
2018-04-30T07:50:02.453Z,2000
2018-04-30T07:55:03.009Z,3000
2018-04-30T08:00:02.552Z,3000
2018-04-30T08:05:03.096Z,3000
2018-04-30T08:10:02.684Z,4000
2018-04-30T08:15:03.245Z,4000
2018-04-30T08:20:02.909Z,3000
2018-04-30T08:25:02.578Z,4000
2018-04-30T08:30:03.178Z,5000
2018-04-30T08:35:02.817Z,4000
2018-04-30T08:40:02.510Z,4000
2018-04-30T08:45:03.151Z,4000
2018-04-30T08:50:02.885Z,5000
2018-04-30T08:55:02.481Z,4000
2018-04-30T09:00:03.228Z,5000
2018-04-30T09:05:02.775Z,5000
2018-04-30T09:10:03.421Z,4000
2018-04-30T09:15:03.052Z,4000
2018-04-30T09:20:03.088Z,4000
2018-04-30T09:25:02.654Z,3000
2018-04-30T09:30:03.454Z,3000
2018-04-30T09:35:03.112Z,4000
2018-04-30T09:40:03.005Z,4000
2018-04-30T09:45:02.620Z,4000
2018-04-30T09:50:03.219Z,4000
2018-04-30T09:55:02.812Z,2000
2018-04-30T10:00:03.403Z,2000
2018-04-30T10:05:03.118Z,2000
2018-04-30T10:10:02.791Z,3000
2018-04-30T10:15:03.227Z,2000
2018-04-30T10:20:02.735Z,3000
2018-04-30T10:25:03.284Z,6000
2018-04-30T10:30:02.803Z,7000
2018-04-30T10:35:03.432Z,6000
2018-04-30T10:40:02.986Z,7000
2018-04-30T10:45:02.758Z,5000
2018-04-30T10:50:03.372Z,4000
2018-04-30T10:55:02.886Z,5000
2018-04-30T11:00:02.545Z,5000
2018-04-30T11:05:03.226Z,7000
2018-04-30T11:10:02.837Z,8000
2018-04-30T11:15:03.457Z,25000
2018-04-30T11:20:02.965Z,6000
2018-04-30T11:25:02.536Z,3000
2018-04-30T11:30:03.224Z,4000
2018-04-30T11:35:02.759Z,4000
2018-04-30T11:40:03.586Z,5000
2018-04-30T11:45:02.562Z,5000
2018-04-30T11:50:03.260Z,13000
2018-04-30T11:55:02.884Z,15000
2018-04-30T12:00:02.574Z,34000
2018-04-30T12:05:03.581Z,15000
2018-04-30T12:10:03.297Z,13000
2018-04-30T12:15:03.105Z,57000
2018-04-30T12:20:02.913Z,19000
2018-04-30T12:25:02.600Z,6000
2018-04-30T12:30:03.234Z,4000
2018-04-30T12:35:02.884Z,4000
2018-04-30T12:40:02.638Z,4000
2018-04-30T12:45:03.264Z,4000
2018-04-30T12:50:02.883Z,4000
2018-04-30T12:55:03.262Z,2000
2018-04-30T13:00:02.583Z,5000
2018-04-30T13:05:03.356Z,11000
2018-04-30T13:10:03.085Z,15000
2018-04-30T13:15:02.741Z,43000
2018-04-30T13:20:03.330Z,40000
2018-04-30T13:25:02.903Z,15000
2018-04-30T13:30:02.670Z,4000
2018-04-30T13:35:03.416Z,4000
2018-04-30T13:40:03.008Z,4000
2018-04-30T13:45:02.663Z,6000
2018-04-30T13:50:03.253Z,8000
2018-04-30T13:55:02.783Z,7000
2018-04-30T14:00:03.507Z,5000
2018-04-30T14:05:03.053Z,14000
2018-04-30T14:10:02.632Z,11000
2018-04-30T14:15:03.366Z,26000
2018-04-30T14:20:02.998Z,9000
2018-04-30T14:25:02.589Z,6000
2018-04-30T14:30:03.097Z,7000
2018-04-30T14:35:02.701Z,5000
2018-04-30T14:40:03.331Z,5000
2018-04-30T14:45:03.081Z,6000
2018-04-30T14:50:02.663Z,7000
2018-04-30T14:55:03.225Z,9000
2018-04-30T15:00:02.859Z,13000
2018-04-30T15:05:03.459Z,11000
2018-04-30T15:10:03.129Z,8000
2018-04-30T15:15:02.794Z,16000
2018-04-30T15:20:03.485Z,10000
2018-04-30T15:25:03.141Z,8000
2018-04-30T15:30:02.733Z,5000
2018-04-30T15:35:03.394Z,10000
2018-04-30T15:40:02.963Z,3000
2018-04-30T15:45:02.614Z,2000
2018-04-30T15:50:03.249Z,2000
2018-04-30T15:55:02.902Z,3000
2018-04-30T16:00:02.510Z,3000
2018-04-30T16:05:03.183Z,2000
2018-04-30T16:10:02.774Z,2000
2018-04-30T16:15:03.341Z,16000
2018-04-30T16:20:02.864Z,18000
2018-04-30T16:25:03.408Z,22000
2018-04-30T16:30:02.981Z,4000
2018-04-30T16:35:02.653Z,4000
2018-04-30T16:40:03.352Z,8000
2018-04-30T16:45:02.944Z,1000
2018-04-30T16:50:02.546Z,8000
2018-04-30T16:55:03.160Z,1000
2018-04-30T17:00:02.692Z,3000
2018-04-30T17:05:03.355Z,3000
2018-04-30T17:10:02.929Z,3000
2018-04-30T17:15:02.509Z,1000
2018-04-30T17:20:03.128Z,1000
2018-04-30T17:25:02.608Z,845
2018-04-30T17:30:03.127Z,474
2018-04-30T17:35:02.770Z,445
2018-04-30T17:40:03.366Z,587
2018-04-30T17:45:02.935Z,611
2018-04-30T17:50:02.576Z,418
2018-04-30T17:55:03.304Z,564
2018-04-30T18:00:03.118Z,410
2018-04-30T18:05:02.581Z,160
2018-04-30T18:10:03.208Z,102
2018-04-30T18:15:02.703Z,192
2018-04-30T18:20:03.357Z,102
2018-04-30T18:25:02.849Z,75
2018-04-30T18:30:03.441Z,78
2018-04-30T18:35:02.983Z,61
2018-04-30T18:40:02.613Z,41
2018-04-30T18:45:03.196Z,37
2018-04-30T18:50:02.729Z,29
2018-04-30T18:55:03.221Z,19
2018-04-30T19:00:02.782Z,21
2018-04-30T19:05:03.390Z,18
2018-04-30T19:10:02.991Z,15
2018-04-30T19:15:02.649Z,6
2018-04-30T19:20:03.319Z,2
2018-04-30T19:25:03.095Z,0
2018-04-30T19:30:02.988Z,0
2018-04-30T19:35:02.615Z,0
2018-04-30T19:40:03.406Z,0
2018-04-30T19:45:03.153Z,0
2018-04-30T19:50:02.700Z,0
2018-04-30T19:55:03.254Z,0
2018-04-30T20:00:02.761Z,0
2018-04-30T20:05:03.323Z,0
2018-04-30T20:10:02.855Z,0
2018-04-30T20:15:03.425Z,0
2018-04-30T20:20:02.948Z,0
2018-04-30T20:25:03.417Z,0
2018-04-30T20:30:02.920Z,0
2018-04-30T20:35:02.478Z,1
2018-04-30T20:40:03.143Z,0
2018-04-30T20:45:02.858Z,0
2018-04-30T20:50:03.400Z,0
2018-04-30T20:55:03.040Z,1
2018-04-30T21:00:02.817Z,0
2018-04-30T21:05:02.682Z,0
2018-04-30T21:10:03.299Z,0
2018-04-30T21:15:02.826Z,1
2018-04-30T21:20:03.437Z,0
2018-04-30T21:25:02.924Z,1
2018-04-30T21:30:02.677Z,1
2018-04-30T21:35:03.255Z,0
2018-04-30T21:40:03.027Z,0
2018-04-30T21:45:02.822Z,1
2018-04-30T21:50:03.375Z,1
2018-04-30T21:55:02.936Z,0
2018-04-30T22:00:02.708Z,0
2018-04-30T22:05:03.284Z,0
2018-04-30T22:10:02.898Z,0
2018-04-30T22:15:02.516Z,1
2018-04-30T22:20:03.126Z,1
2018-04-30T22:25:02.692Z,0
2018-04-30T22:30:03.251Z,0
2018-04-30T22:35:02.861Z,0
2018-04-30T22:40:02.491Z,1
2018-04-30T22:45:03.019Z,0
2018-04-30T22:50:02.521Z,0
2018-04-30T22:55:03.157Z,0
2018-04-30T23:00:04.994Z,1
2018-04-30T23:05:02.639Z,0
2018-04-30T23:10:03.412Z,0
2018-04-30T23:15:02.916Z,0
2018-04-30T23:20:02.479Z,0
2018-04-30T23:25:03.074Z,0
2018-04-30T23:30:02.672Z,0
2018-04-30T23:35:03.245Z,0
2018-04-30T23:40:02.852Z,1
2018-04-30T23:45:02.480Z,0
2018-04-30T23:50:03.029Z,0
2018-04-30T23:55:02.619Z,0
